Willits, California
Current Conditions -  °F | °C
As of 12:56 PM on Friday 24 Oct 2014 (Local Time) from KUKI Reporting Station
Clear Clear  
Wind Chill: 70°   Ceiling: Unl
Heat Index: 70°   Visibility: 10mi
Dew Point: 53°   Wind: 15mph
Humidity: 55%   Direction: 130°SE
Pressure: 29.9"   Gusts: NA
Location:  39.4°N, 123.35°W
Report Text: KUKI 241956Z AUTO 13013KT 10SM CLR 21/12 A2990 RMK AO2 SLP120 T02110117
Loading
Personal Weather Stations






























Interactive Weather Map
Tropical Storm Tracking
New forecast layout! Learn more

10-Day Weather Forecast

Advertisements
Track Severe Weather on mobile